sensor_id;sensor_type;location;lat;lon;timestamp;P1;durP1;ratioP1;P2;durP2;ratioP2
353;SDS011;165;53.592;10.044;2023-03-23T06:25:22;9.20;;;7.97;;
353;SDS011;165;53.592;10.044;2023-03-23T06:27:47;8.23;;;7.23;;
353;SDS011;165;53.592;10.044;2023-03-23T06:30:13;8.17;;;6.43;;
353;SDS011;165;53.592;10.044;2023-03-23T06:32:39;8.67;;;7.57;;
353;SDS011;165;53.592;10.044;2023-03-23T06:35:05;7.57;;;6.40;;
353;SDS011;165;53.592;10.044;2023-03-23T06:37:31;7.30;;;6.80;;
353;SDS011;165;53.592;10.044;2023-03-23T06:39:57;7.93;;;5.97;;
353;SDS011;165;53.592;10.044;2023-03-23T06:42:23;7.10;;;6.10;;
353;SDS011;165;53.592;10.044;2023-03-23T06:44:52;8.97;;;6.00;;
353;SDS011;165;53.592;10.044;2023-03-23T06:47:17;9.30;;;5.70;;
353;SDS011;165;53.592;10.044;2023-03-23T06:49:43;6.53;;;6.00;;
353;SDS011;165;53.592;10.044;2023-03-23T06:52:08;6.53;;;5.77;;
353;SDS011;165;53.592;10.044;2023-03-23T06:54:34;8.17;;;5.10;;
353;SDS011;165;53.592;10.044;2023-03-23T06:57:00;6.57;;;6.17;;
353;SDS011;165;53.592;10.044;2023-03-23T06:59:25;7.30;;;6.27;;
353;SDS011;165;53.592;10.044;2023-03-23T07:01:50;7.20;;;6.40;;
353;SDS011;165;53.592;10.044;2023-03-23T07:04:16;7.23;;;5.90;;
353;SDS011;165;53.592;10.044;2023-03-23T07:06:41;6.10;;;5.63;;
353;SDS011;165;53.592;10.044;2023-03-23T07:09:07;6.10;;;5.83;;
353;SDS011;165;53.592;10.044;2023-03-23T07:11:32;6.37;;;5.33;;
353;SDS011;165;53.592;10.044;2023-03-23T07:13:58;7.93;;;5.43;;
353;SDS011;165;53.592;10.044;2023-03-23T07:16:23;5.30;;;4.70;;
353;SDS011;165;53.592;10.044;2023-03-23T07:18:49;6.70;;;4.77;;
353;SDS011;165;53.592;10.044;2023-03-23T07:21:34;5.37;;;5.07;;
353;SDS011;165;53.592;10.044;2023-03-23T07:24:01;5.80;;;5.50;;
353;SDS011;165;53.592;10.044;2023-03-23T07:26:26;6.43;;;4.93;;
353;SDS011;165;53.592;10.044;2023-03-23T07:28:51;5.97;;;5.30;;
353;SDS011;165;53.592;10.044;2023-03-23T07:31:17;5.80;;;5.40;;
353;SDS011;165;53.592;10.044;2023-03-23T07:33:42;5.63;;;5.37;;
353;SDS011;165;53.592;10.044;2023-03-23T07:36:08;6.83;;;4.80;;
353;SDS011;165;53.592;10.044;2023-03-23T07:38:34;6.17;;;5.87;;
353;SDS011;165;53.592;10.044;2023-03-23T07:40:59;7.13;;;6.50;;
353;SDS011;165;53.592;10.044;2023-03-23T07:43:25;5.60;;;5.30;;
353;SDS011;165;53.592;10.044;2023-03-23T07:45:50;5.40;;;5.10;;
353;SDS011;165;53.592;10.044;2023-03-23T07:48:16;6.10;;;5.80;;
353;SDS011;165;53.592;10.044;2023-03-23T07:50:42;6.07;;;5.77;;
353;SDS011;165;53.592;10.044;2023-03-23T07:53:07;7.00;;;5.67;;
353;SDS011;165;53.592;10.044;2023-03-23T07:55:33;5.83;;;5.53;;
353;SDS011;165;53.592;10.044;2023-03-23T07:57:58;7.47;;;6.90;;
353;SDS011;165;53.592;10.044;2023-03-23T08:00:24;8.03;;;6.00;;
353;SDS011;165;53.592;10.044;2023-03-23T08:02:51;7.30;;;5.40;;
353;SDS011;165;53.592;10.044;2023-03-23T08:05:20;6.17;;;5.60;;
353;SDS011;165;53.592;10.044;2023-03-23T08:07:46;5.97;;;5.63;;
353;SDS011;165;53.592;10.044;2023-03-23T08:10:13;6.00;;;5.70;;
353;SDS011;165;53.592;10.044;2023-03-23T08:12:40;7.90;;;6.33;;
353;SDS011;165;53.592;10.044;2023-03-23T08:15:07;11.23;;;8.30;;
353;SDS011;165;53.592;10.044;2023-03-23T08:17:34;9.13;;;6.70;;
353;SDS011;165;53.592;10.044;2023-03-23T08:20:00;7.27;;;6.87;;
353;SDS011;165;53.592;10.044;2023-03-23T08:22:26;11.17;;;7.90;;
353;SDS011;165;53.592;10.044;2023-03-23T08:24:52;7.00;;;6.60;;
353;SDS011;165;53.592;10.044;2023-03-23T08:27:17;8.90;;;7.33;;
353;SDS011;165;53.592;10.044;2023-03-23T08:29:46;7.50;;;7.00;;
353;SDS011;165;53.592;10.044;2023-03-23T08:32:12;7.20;;;5.90;;
353;SDS011;165;53.592;10.044;2023-03-23T08:34:38;5.30;;;4.27;;
353;SDS011;165;53.592;10.044;2023-03-23T08:37:03;3.40;;;3.20;;
353;SDS011;165;53.592;10.044;2023-03-23T08:39:29;5.70;;;3.90;;
353;SDS011;165;53.592;10.044;2023-03-23T08:41:54;4.47;;;4.17;;
353;SDS011;165;53.592;10.044;2023-03-23T08:44:20;6.40;;;4.30;;
353;SDS011;165;53.592;10.044;2023-03-23T08:46:45;4.83;;;4.10;;
353;SDS011;165;53.592;10.044;2023-03-23T08:49:12;6.43;;;3.77;;
353;SDS011;165;53.592;10.044;2023-03-23T08:51:37;4.93;;;3.80;;
353;SDS011;165;53.592;10.044;2023-03-23T08:54:03;6.67;;;4.90;;
353;SDS011;165;53.592;10.044;2023-03-23T08:56:29;5.20;;;4.53;;
353;SDS011;165;53.592;10.044;2023-03-23T08:58:54;4.30;;;3.53;;
353;SDS011;165;53.592;10.044;2023-03-23T09:01:20;4.23;;;3.37;;
353;SDS011;165;53.592;10.044;2023-03-23T09:03:45;3.33;;;2.90;;
353;SDS011;165;53.592;10.044;2023-03-23T09:06:11;3.40;;;3.10;;
353;SDS011;165;53.592;10.044;2023-03-23T09:08:36;4.57;;;3.57;;
353;SDS011;165;53.592;10.044;2023-03-23T09:11:02;8.63;;;3.90;;
353;SDS011;165;53.592;10.044;2023-03-23T09:13:29;5.70;;;3.63;;
353;SDS011;165;53.592;10.044;2023-03-23T09:15:54;5.43;;;4.80;;
353;SDS011;165;53.592;10.044;2023-03-23T09:18:20;4.60;;;4.30;;
353;SDS011;165;53.592;10.044;2023-03-23T09:20:46;4.90;;;4.60;;
353;SDS011;165;53.592;10.044;2023-03-23T09:23:13;6.97;;;5.33;;
353;SDS011;165;53.592;10.044;2023-03-23T09:25:39;5.50;;;4.77;;
353;SDS011;165;53.592;10.044;2023-03-23T09:28:04;6.13;;;4.70;;
353;SDS011;165;53.592;10.044;2023-03-23T09:30:30;7.00;;;5.40;;
353;SDS011;165;53.592;10.044;2023-03-23T09:33:00;5.80;;;5.10;;
353;SDS011;165;53.592;10.044;2023-03-23T09:35:26;5.33;;;5.07;;
353;SDS011;165;53.592;10.044;2023-03-23T09:37:52;6.87;;;5.37;;
353;SDS011;165;53.592;10.044;2023-03-23T09:40:19;5.50;;;5.20;;
353;SDS011;165;53.592;10.044;2023-03-23T09:48:23;8.00;;;5.57;;
353;SDS011;165;53.592;10.044;2023-03-23T09:56:49;7.20;;;6.00;;
353;SDS011;165;53.592;10.044;2023-03-23T09:59:18;9.17;;;5.67;;
353;SDS011;165;53.592;10.044;2023-03-23T10:01:46;22.50;;;8.20;;
353;SDS011;165;53.592;10.044;2023-03-23T10:04:19;7.30;;;5.90;;
353;SDS011;165;53.592;10.044;2023-03-23T10:06:58;9.10;;;7.30;;
353;SDS011;165;53.592;10.044;2023-03-23T10:09:30;8.60;;;8.00;;
353;SDS011;165;53.592;10.044;2023-03-23T10:12:00;9.37;;;8.87;;
353;SDS011;165;53.592;10.044;2023-03-23T10:14:49;9.37;;;8.87;;
353;SDS011;165;53.592;10.044;2023-03-23T10:17:40;10.10;;;9.60;;
353;SDS011;165;53.592;10.044;2023-03-23T10:20:19;10.60;;;10.00;;
353;SDS011;165;53.592;10.044;2023-03-23T10:22:58;14.00;;;10.33;;
353;SDS011;165;53.592;10.044;2023-03-23T10:25:34;10.10;;;9.60;;
353;SDS011;165;53.592;10.044;2023-03-23T10:28:12;10.10;;;9.60;;
353;SDS011;165;53.592;10.044;2023-03-23T10:30:43;10.63;;;10.07;;
353;SDS011;165;53.592;10.044;2023-03-23T10:33:14;16.37;;;11.07;;
353;SDS011;165;53.592;10.044;2023-03-23T10:38:35;12.20;;;10.20;;
353;SDS011;165;53.592;10.044;2023-03-23T10:41:06;10.37;;;9.87;;
353;SDS011;165;53.592;10.044;2023-03-23T10:43:36;10.43;;;9.90;;
353;SDS011;165;53.592;10.044;2023-03-23T10:49:02;12.60;;;9.87;;
353;SDS011;165;53.592;10.044;2023-03-23T10:51:32;11.17;;;10.57;;
353;SDS011;165;53.592;10.044;2023-03-23T10:54:00;11.40;;;10.40;;
353;SDS011;165;53.592;10.044;2023-03-23T10:56:29;10.70;;;10.00;;
353;SDS011;165;53.592;10.044;2023-03-23T10:59:13;11.97;;;10.60;;
353;SDS011;165;53.592;10.044;2023-03-23T11:01:51;10.17;;;9.67;;
353;SDS011;165;53.592;10.044;2023-03-23T11:04:19;9.87;;;9.37;;
353;SDS011;165;53.592;10.044;2023-03-23T11:06:46;12.40;;;10.53;;
353;SDS011;165;53.592;10.044;2023-03-23T11:09:17;9.83;;;9.23;;
353;SDS011;165;53.592;10.044;2023-03-23T11:11:51;15.17;;;10.73;;
353;SDS011;165;53.592;10.044;2023-03-23T11:14:20;16.93;;;11.60;;
353;SDS011;165;53.592;10.044;2023-03-23T11:16:54;10.80;;;10.20;;
353;SDS011;165;53.592;10.044;2023-03-23T11:19:25;11.20;;;10.60;;
353;SDS011;165;53.592;10.044;2023-03-23T11:21:59;12.40;;;11.80;;
353;SDS011;165;53.592;10.044;2023-03-23T11:24:27;18.13;;;16.70;;
353;SDS011;165;53.592;10.044;2023-03-23T11:26:54;11.47;;;10.80;;
353;SDS011;165;53.592;10.044;2023-03-23T11:29:23;13.57;;;12.87;;
353;SDS011;165;53.592;10.044;2023-03-23T11:31:52;19.77;;;18.30;;
353;SDS011;165;53.592;10.044;2023-03-23T11:34:30;12.63;;;11.43;;
353;SDS011;165;53.592;10.044;2023-03-23T11:36:58;11.60;;;10.87;;
353;SDS011;165;53.592;10.044;2023-03-23T11:39:31;12.23;;;11.50;;
353;SDS011;165;53.592;10.044;2023-03-23T11:42:12;19.57;;;12.03;;
353;SDS011;165;53.592;10.044;2023-03-23T11:44:43;12.27;;;11.67;;
353;SDS011;165;53.592;10.044;2023-03-23T11:52:42;14.53;;;12.80;;
353;SDS011;165;53.592;10.044;2023-03-23T11:55:15;11.37;;;10.77;;
353;SDS011;165;53.592;10.044;2023-03-23T11:58:12;16.53;;;13.50;;
353;SDS011;165;53.592;10.044;2023-03-23T12:00:41;12.00;;;11.40;;
353;SDS011;165;53.592;10.044;2023-03-23T12:03:56;13.63;;;10.90;;
353;SDS011;165;53.592;10.044;2023-03-23T12:20:50;12.27;;;11.67;;
353;SDS011;165;53.592;10.044;2023-03-23T12:26:39;13.37;;;9.03;;
353;SDS011;165;53.592;10.044;2023-03-23T12:29:18;37.53;;;22.53;;
353;SDS011;165;53.592;10.044;2023-03-23T12:31:59;10.97;;;9.10;;
353;SDS011;165;53.592;10.044;2023-03-23T12:34:58;11.93;;;7.90;;
353;SDS011;165;53.592;10.044;2023-03-23T12:37:33;10.47;;;6.77;;
353;SDS011;165;53.592;10.044;2023-03-23T12:43:16;9.10;;;8.10;;
353;SDS011;165;53.592;10.044;2023-03-23T12:48:42;10.07;;;9.37;;
353;SDS011;165;53.592;10.044;2023-03-23T12:51:19;9.20;;;7.20;;
353;SDS011;165;53.592;10.044;2023-03-23T12:53:56;9.47;;;8.27;;
353;SDS011;165;53.592;10.044;2023-03-23T12:56:27;9.07;;;6.67;;
353;SDS011;165;53.592;10.044;2023-03-23T12:59:47;9.07;;;7.33;;
353;SDS011;165;53.592;10.044;2023-03-23T13:02:00;13.37;;;7.10;;
353;SDS011;165;53.592;10.044;2023-03-23T13:04:42;9.67;;;6.93;;
353;SDS011;165;53.592;10.044;2023-03-23T13:07:12;11.00;;;6.70;;
353;SDS011;165;53.592;10.044;2023-03-23T13:12:15;10.50;;;7.30;;
353;SDS011;165;53.592;10.044;2023-03-23T13:14:43;10.53;;;9.33;;
353;SDS011;165;53.592;10.044;2023-03-23T13:26:24;11.30;;;8.27;;
353;SDS011;165;53.592;10.044;2023-03-23T13:31:33;8.60;;;8.07;;
353;SDS011;165;53.592;10.044;2023-03-23T13:34:23;8.87;;;8.23;;
353;SDS011;165;53.592;10.044;2023-03-23T13:37:09;8.10;;;7.70;;
353;SDS011;165;53.592;10.044;2023-03-23T13:39:56;8.90;;;8.40;;
353;SDS011;165;53.592;10.044;2023-03-23T13:42:26;8.60;;;8.10;;
353;SDS011;165;53.592;10.044;2023-03-23T13:49:55;10.40;;;9.90;;
353;SDS011;165;53.592;10.044;2023-03-23T14:03:10;9.57;;;9.07;;
353;SDS011;165;53.592;10.044;2023-03-23T14:10:52;7.53;;;7.13;;
353;SDS011;165;53.592;10.044;2023-03-23T14:13:22;7.93;;;5.40;;
353;SDS011;165;53.592;10.044;2023-03-23T14:18:25;6.40;;;4.10;;
353;SDS011;165;53.592;10.044;2023-03-23T14:21:01;4.20;;;3.17;;
353;SDS011;165;53.592;10.044;2023-03-23T14:23:30;4.97;;;3.07;;
353;SDS011;165;53.592;10.044;2023-03-23T14:26:09;4.40;;;3.00;;
353;SDS011;165;53.592;10.044;2023-03-23T14:28:38;2.50;;;2.23;;
353;SDS011;165;53.592;10.044;2023-03-23T14:31:05;4.80;;;2.80;;
353;SDS011;165;53.592;10.044;2023-03-23T14:33:39;4.60;;;2.40;;
353;SDS011;165;53.592;10.044;2023-03-23T14:36:04;7.03;;;2.80;;
353;SDS011;165;53.592;10.044;2023-03-23T14:38:30;2.57;;;2.20;;
353;SDS011;165;53.592;10.044;2023-03-23T14:40:58;5.00;;;3.13;;
353;SDS011;165;53.592;10.044;2023-03-23T14:43:26;3.10;;;2.33;;
353;SDS011;165;53.592;10.044;2023-03-23T14:45:52;3.97;;;2.40;;
353;SDS011;165;53.592;10.044;2023-03-23T14:48:20;5.77;;;2.70;;
353;SDS011;165;53.592;10.044;2023-03-23T14:50:50;11.63;;;7.83;;
353;SDS011;165;53.592;10.044;2023-03-23T14:55:51;4.40;;;3.07;;
353;SDS011;165;53.592;10.044;2023-03-23T14:58:20;5.70;;;2.63;;
353;SDS011;165;53.592;10.044;2023-03-23T15:03:24;6.90;;;4.43;;
353;SDS011;165;53.592;10.044;2023-03-23T15:05:57;7.73;;;3.00;;
353;SDS011;165;53.592;10.044;2023-03-23T15:08:27;15.70;;;11.13;;
353;SDS011;165;53.592;10.044;2023-03-23T15:13:53;41.00;;;23.87;;
353;SDS011;165;53.592;10.044;2023-03-23T15:16:23;25.33;;;16.60;;
353;SDS011;165;53.592;10.044;2023-03-23T15:19:04;3.90;;;3.57;;
353;SDS011;165;53.592;10.044;2023-03-23T15:21:45;6.73;;;3.80;;
353;SDS011;165;53.592;10.044;2023-03-23T15:25:01;9.13;;;3.43;;
353;SDS011;165;53.592;10.044;2023-03-23T15:27:14;5.37;;;3.63;;
353;SDS011;165;53.592;10.044;2023-03-23T15:29:50;5.70;;;3.60;;
353;SDS011;165;53.592;10.044;2023-03-23T15:32:21;8.83;;;4.17;;
353;SDS011;165;53.592;10.044;2023-03-23T15:35:03;4.43;;;4.00;;
353;SDS011;165;53.592;10.044;2023-03-23T15:37:37;5.93;;;4.27;;
353;SDS011;165;53.592;10.044;2023-03-23T15:40:17;5.00;;;4.10;;
353;SDS011;165;53.592;10.044;2023-03-23T15:42:45;5.50;;;4.20;;
353;SDS011;165;53.592;10.044;2023-03-23T15:47:44;3.80;;;3.00;;
353;SDS011;165;53.592;10.044;2023-03-23T15:50:16;4.50;;;3.80;;
353;SDS011;165;53.592;10.044;2023-03-23T15:52:42;6.00;;;5.00;;
353;SDS011;165;53.592;10.044;2023-03-23T15:57:50;5.03;;;4.73;;
353;SDS011;165;53.592;10.044;2023-03-23T16:00:18;4.83;;;4.40;;
353;SDS011;165;53.592;10.044;2023-03-23T16:02:45;12.20;;;6.03;;
353;SDS011;165;53.592;10.044;2023-03-23T16:05:12;14.83;;;14.07;;
353;SDS011;165;53.592;10.044;2023-03-23T16:07:38;5.60;;;5.30;;
353;SDS011;165;53.592;10.044;2023-03-23T16:10:05;19.27;;;14.40;;
353;SDS011;165;53.592;10.044;2023-03-23T16:12:31;6.80;;;4.90;;
353;SDS011;165;53.592;10.044;2023-03-23T16:14:57;9.27;;;4.60;;
353;SDS011;165;53.592;10.044;2023-03-23T16:17:24;5.67;;;4.10;;
353;SDS011;165;53.592;10.044;2023-03-23T16:19:50;10.17;;;3.97;;
353;SDS011;165;53.592;10.044;2023-03-23T16:22:15;8.83;;;5.53;;
353;SDS011;165;53.592;10.044;2023-03-23T16:24:41;4.87;;;3.00;;
353;SDS011;165;53.592;10.044;2023-03-23T16:27:08;3.43;;;3.30;;
353;SDS011;165;53.592;10.044;2023-03-23T16:29:34;3.80;;;3.60;;
353;SDS011;165;53.592;10.044;2023-03-23T16:32:00;6.77;;;3.57;;
353;SDS011;165;53.592;10.044;2023-03-23T16:34:26;8.90;;;6.10;;
353;SDS011;165;53.592;10.044;2023-03-23T16:36:51;6.50;;;3.80;;
353;SDS011;165;53.592;10.044;2023-03-23T16:39:17;5.57;;;4.03;;
353;SDS011;165;53.592;10.044;2023-03-23T16:41:42;4.57;;;4.27;;
353;SDS011;165;53.592;10.044;2023-03-23T16:44:08;4.87;;;4.20;;
353;SDS011;165;53.592;10.044;2023-03-23T16:46:34;5.47;;;3.87;;
353;SDS011;165;53.592;10.044;2023-03-23T16:49:05;5.97;;;3.90;;
353;SDS011;165;53.592;10.044;2023-03-23T16:51:31;4.67;;;4.00;;
353;SDS011;165;53.592;10.044;2023-03-23T16:53:59;6.17;;;5.83;;
353;SDS011;165;53.592;10.044;2023-03-23T16:56:25;5.50;;;4.50;;
353;SDS011;165;53.592;10.044;2023-03-23T16:58:50;5.67;;;4.90;;
353;SDS011;165;53.592;10.044;2023-03-23T17:01:47;8.70;;;7.00;;
353;SDS011;165;53.592;10.044;2023-03-23T17:04:12;10.37;;;4.60;;
353;SDS011;165;53.592;10.044;2023-03-23T17:06:38;6.43;;;6.03;;
353;SDS011;165;53.592;10.044;2023-03-23T17:09:03;15.53;;;12.13;;
353;SDS011;165;53.592;10.044;2023-03-23T17:11:29;7.27;;;4.27;;
353;SDS011;165;53.592;10.044;2023-03-23T17:13:54;5.17;;;3.90;;
353;SDS011;165;53.592;10.044;2023-03-23T17:16:20;12.43;;;8.03;;
353;SDS011;165;53.592;10.044;2023-03-23T17:18:45;8.73;;;7.00;;
353;SDS011;165;53.592;10.044;2023-03-23T17:21:11;5.03;;;4.40;;
353;SDS011;165;53.592;10.044;2023-03-23T17:23:36;8.47;;;5.80;;
353;SDS011;165;53.592;10.044;2023-03-23T17:26:02;5.57;;;4.70;;
353;SDS011;165;53.592;10.044;2023-03-23T17:28:27;7.10;;;4.93;;
353;SDS011;165;53.592;10.044;2023-03-23T17:30:53;7.80;;;4.60;;
353;SDS011;165;53.592;10.044;2023-03-23T17:33:18;4.10;;;3.90;;
353;SDS011;165;53.592;10.044;2023-03-23T17:35:44;4.67;;;4.37;;
353;SDS011;165;53.592;10.044;2023-03-23T17:38:10;5.00;;;4.70;;
353;SDS011;165;53.592;10.044;2023-03-23T17:40:36;6.10;;;4.57;;
353;SDS011;165;53.592;10.044;2023-03-23T17:43:02;5.93;;;5.03;;
353;SDS011;165;53.592;10.044;2023-03-23T17:45:28;6.43;;;5.17;;
353;SDS011;165;53.592;10.044;2023-03-23T17:47:53;5.57;;;5.00;;
353;SDS011;165;53.592;10.044;2023-03-23T17:50:19;4.83;;;4.53;;
353;SDS011;165;53.592;10.044;2023-03-23T17:52:44;7.00;;;5.23;;
353;SDS011;165;53.592;10.044;2023-03-23T17:55:10;5.10;;;4.27;;
353;SDS011;165;53.592;10.044;2023-03-23T17:57:35;8.10;;;6.63;;
353;SDS011;165;53.592;10.044;2023-03-23T18:00:01;8.63;;;5.00;;
353;SDS011;165;53.592;10.044;2023-03-23T18:02:28;6.77;;;4.80;;
353;SDS011;165;53.592;10.044;2023-03-23T18:04:55;11.30;;;4.53;;
353;SDS011;165;53.592;10.044;2023-03-23T18:07:21;8.47;;;3.77;;
353;SDS011;165;53.592;10.044;2023-03-23T18:09:47;7.30;;;4.60;;
353;SDS011;165;53.592;10.044;2023-03-23T18:12:13;6.93;;;3.90;;
353;SDS011;165;53.592;10.044;2023-03-23T18:14:38;6.13;;;4.40;;
353;SDS011;165;53.592;10.044;2023-03-23T18:17:04;7.10;;;4.83;;
353;SDS011;165;53.592;10.044;2023-03-23T18:19:30;9.93;;;4.57;;
353;SDS011;165;53.592;10.044;2023-03-23T18:21:55;5.67;;;3.90;;
353;SDS011;165;53.592;10.044;2023-03-23T18:24:21;7.37;;;4.77;;
353;SDS011;165;53.592;10.044;2023-03-23T18:26:46;6.40;;;4.73;;
353;SDS011;165;53.592;10.044;2023-03-23T18:29:12;10.13;;;6.43;;
353;SDS011;165;53.592;10.044;2023-03-23T18:31:37;7.30;;;4.20;;
353;SDS011;165;53.592;10.044;2023-03-23T18:34:03;6.70;;;4.27;;
353;SDS011;165;53.592;10.044;2023-03-23T18:36:28;6.67;;;3.93;;
353;SDS011;165;53.592;10.044;2023-03-23T18:38:55;7.50;;;4.40;;
353;SDS011;165;53.592;10.044;2023-03-23T18:41:21;7.00;;;5.17;;
353;SDS011;165;53.592;10.044;2023-03-23T18:43:47;7.13;;;4.13;;
353;SDS011;165;53.592;10.044;2023-03-23T18:46:12;8.47;;;4.47;;
353;SDS011;165;53.592;10.044;2023-03-23T18:48:38;7.00;;;3.60;;
353;SDS011;165;53.592;10.044;2023-03-23T18:51:03;8.33;;;4.60;;
353;SDS011;165;53.592;10.044;2023-03-23T18:53:29;7.47;;;4.60;;
353;SDS011;165;53.592;10.044;2023-03-23T18:56:08;7.60;;;4.30;;
353;SDS011;165;53.592;10.044;2023-03-23T18:58:35;7.93;;;5.73;;
353;SDS011;165;53.592;10.044;2023-03-23T19:01:02;7.20;;;3.60;;
353;SDS011;165;53.592;10.044;2023-03-23T19:03:33;8.60;;;4.53;;
353;SDS011;165;53.592;10.044;2023-03-23T19:05:59;6.53;;;3.87;;
353;SDS011;165;53.592;10.044;2023-03-23T19:08:26;6.70;;;4.40;;
353;SDS011;165;53.592;10.044;2023-03-23T19:10:56;11.13;;;6.20;;
353;SDS011;165;53.592;10.044;2023-03-23T19:13:26;12.90;;;6.70;;
353;SDS011;165;53.592;10.044;2023-03-23T19:15:53;5.40;;;4.07;;
353;SDS011;165;53.592;10.044;2023-03-23T19:18:19;8.67;;;6.27;;
353;SDS011;165;53.592;10.044;2023-03-23T19:20:45;7.83;;;4.73;;
353;SDS011;165;53.592;10.044;2023-03-23T19:23:11;9.43;;;5.03;;
353;SDS011;165;53.592;10.044;2023-03-23T19:25:36;6.07;;;5.00;;
353;SDS011;165;53.592;10.044;2023-03-23T19:28:02;8.30;;;4.90;;
353;SDS011;165;53.592;10.044;2023-03-23T19:30:27;7.77;;;5.07;;
353;SDS011;165;53.592;10.044;2023-03-23T19:32:53;13.53;;;5.47;;
353;SDS011;165;53.592;10.044;2023-03-23T19:35:18;7.83;;;4.93;;
353;SDS011;165;53.592;10.044;2023-03-23T19:37:44;5.73;;;4.43;;
353;SDS011;165;53.592;10.044;2023-03-23T19:40:09;9.80;;;5.83;;
353;SDS011;165;53.592;10.044;2023-03-23T19:42:35;5.47;;;4.80;;
353;SDS011;165;53.592;10.044;2023-03-23T19:45:00;6.40;;;4.67;;
353;SDS011;165;53.592;10.044;2023-03-23T19:47:28;6.57;;;4.40;;
353;SDS011;165;53.592;10.044;2023-03-23T19:49:54;7.83;;;4.20;;
353;SDS011;165;53.592;10.044;2023-03-23T19:52:19;6.63;;;4.30;;
353;SDS011;165;53.592;10.044;2023-03-23T19:54:45;6.27;;;5.07;;
353;SDS011;165;53.592;10.044;2023-03-23T19:57:10;10.30;;;6.17;;
353;SDS011;165;53.592;10.044;2023-03-23T19:59:36;10.63;;;6.07;;
353;SDS011;165;53.592;10.044;2023-03-23T20:02:02;5.97;;;4.27;;
353;SDS011;165;53.592;10.044;2023-03-23T20:04:28;5.90;;;3.90;;
353;SDS011;165;53.592;10.044;2023-03-23T20:06:54;6.60;;;4.30;;
353;SDS011;165;53.592;10.044;2023-03-23T20:09:20;7.73;;;4.53;;
353;SDS011;165;53.592;10.044;2023-03-23T20:11:45;6.73;;;4.40;;
353;SDS011;165;53.592;10.044;2023-03-23T20:14:11;6.30;;;4.37;;
353;SDS011;165;53.592;10.044;2023-03-23T20:16:37;7.00;;;3.77;;
353;SDS011;165;53.592;10.044;2023-03-23T20:19:02;5.80;;;4.77;;
353;SDS011;165;53.592;10.044;2023-03-23T20:21:27;6.07;;;4.00;;
353;SDS011;165;53.592;10.044;2023-03-23T20:23:56;6.40;;;4.20;;
353;SDS011;165;53.592;10.044;2023-03-23T20:26:23;6.23;;;5.30;;
353;SDS011;165;53.592;10.044;2023-03-23T20:28:54;7.67;;;4.67;;
353;SDS011;165;53.592;10.044;2023-03-23T20:31:21;9.20;;;5.97;;
353;SDS011;165;53.592;10.044;2023-03-23T20:33:49;7.00;;;4.83;;
353;SDS011;165;53.592;10.044;2023-03-23T20:36:17;8.77;;;6.17;;
353;SDS011;165;53.592;10.044;2023-03-23T20:38:42;7.87;;;6.00;;
353;SDS011;165;53.592;10.044;2023-03-23T20:41:08;8.30;;;6.20;;
353;SDS011;165;53.592;10.044;2023-03-23T20:43:34;6.40;;;4.93;;
353;SDS011;165;53.592;10.044;2023-03-23T20:45:59;6.20;;;5.37;;
353;SDS011;165;53.592;10.044;2023-03-23T20:48:27;5.80;;;5.53;;
353;SDS011;165;53.592;10.044;2023-03-23T20:50:55;6.17;;;5.70;;
353;SDS011;165;53.592;10.044;2023-03-23T20:53:21;7.57;;;5.40;;
353;SDS011;165;53.592;10.044;2023-03-23T20:55:48;9.73;;;5.93;;
353;SDS011;165;53.592;10.044;2023-03-23T20:58:14;7.60;;;5.83;;
353;SDS011;165;53.592;10.044;2023-03-23T21:00:40;6.10;;;5.80;;
353;SDS011;165;53.592;10.044;2023-03-23T21:03:06;8.40;;;6.30;;
353;SDS011;165;53.592;10.044;2023-03-23T21:05:31;9.33;;;6.80;;
353;SDS011;165;53.592;10.044;2023-03-23T21:07:57;5.93;;;5.70;;
353;SDS011;165;53.592;10.044;2023-03-23T21:10:23;7.77;;;6.10;;
353;SDS011;165;53.592;10.044;2023-03-23T21:12:48;9.37;;;6.83;;
353;SDS011;165;53.592;10.044;2023-03-23T21:15:14;8.60;;;7.20;;
353;SDS011;165;53.592;10.044;2023-03-23T21:17:39;7.97;;;7.10;;
353;SDS011;165;53.592;10.044;2023-03-23T21:20:05;7.90;;;7.50;;
353;SDS011;165;53.592;10.044;2023-03-23T21:22:30;13.03;;;8.60;;
353;SDS011;165;53.592;10.044;2023-03-23T21:24:56;10.87;;;8.30;;
353;SDS011;165;53.592;10.044;2023-03-23T21:27:21;11.63;;;9.37;;
353;SDS011;165;53.592;10.044;2023-03-23T21:29:47;9.83;;;8.37;;
353;SDS011;165;53.592;10.044;2023-03-23T21:32:12;11.80;;;8.33;;
353;SDS011;165;53.592;10.044;2023-03-23T21:34:38;9.30;;;8.03;;
353;SDS011;165;53.592;10.044;2023-03-23T21:37:03;11.47;;;8.37;;
353;SDS011;165;53.592;10.044;2023-03-23T21:39:29;9.70;;;9.20;;
353;SDS011;165;53.592;10.044;2023-03-23T21:41:54;10.10;;;8.77;;
353;SDS011;165;53.592;10.044;2023-03-23T21:44:20;10.47;;;9.90;;
353;SDS011;165;53.592;10.044;2023-03-23T21:46:45;13.90;;;8.77;;
353;SDS011;165;53.592;10.044;2023-03-23T21:49:11;15.40;;;10.17;;
353;SDS011;165;53.592;10.044;2023-03-23T21:51:37;11.47;;;8.77;;
353;SDS011;165;53.592;10.044;2023-03-23T21:54:02;11.63;;;9.50;;
353;SDS011;165;53.592;10.044;2023-03-23T21:56:28;11.43;;;9.10;;
353;SDS011;165;53.592;10.044;2023-03-23T21:58:54;11.37;;;9.70;;
353;SDS011;165;53.592;10.044;2023-03-23T22:01:20;11.93;;;9.70;;
353;SDS011;165;53.592;10.044;2023-03-23T22:03:46;13.47;;;9.80;;
353;SDS011;165;53.592;10.044;2023-03-23T22:06:13;10.93;;;9.47;;
353;SDS011;165;53.592;10.044;2023-03-23T22:08:44;10.50;;;9.47;;
353;SDS011;165;53.592;10.044;2023-03-23T22:11:16;11.57;;;9.73;;
353;SDS011;165;53.592;10.044;2023-03-23T22:13:47;13.23;;;10.17;;
353;SDS011;165;53.592;10.044;2023-03-23T22:16:14;14.33;;;10.87;;
353;SDS011;165;53.592;10.044;2023-03-23T22:18:40;14.63;;;10.03;;
353;SDS011;165;53.592;10.044;2023-03-23T22:21:07;12.87;;;11.40;;
353;SDS011;165;53.592;10.044;2023-03-23T22:23:33;15.57;;;11.30;;
353;SDS011;165;53.592;10.044;2023-03-23T22:25:59;12.53;;;10.90;;
353;SDS011;165;53.592;10.044;2023-03-23T22:28:25;14.17;;;10.83;;
353;SDS011;165;53.592;10.044;2023-03-23T22:30:58;11.13;;;9.63;;
353;SDS011;165;53.592;10.044;2023-03-23T22:33:24;11.30;;;9.70;;
353;SDS011;165;53.592;10.044;2023-03-23T22:35:50;12.30;;;10.60;;
353;SDS011;165;53.592;10.044;2023-03-23T22:38:16;12.93;;;10.70;;
353;SDS011;165;53.592;10.044;2023-03-23T22:40:41;12.80;;;9.93;;
353;SDS011;165;53.592;10.044;2023-03-23T22:43:07;14.93;;;10.13;;
353;SDS011;165;53.592;10.044;2023-03-23T22:45:33;12.77;;;9.60;;
353;SDS011;165;53.592;10.044;2023-03-23T22:47:59;10.33;;;8.93;;
353;SDS011;165;53.592;10.044;2023-03-23T22:50:25;10.90;;;9.20;;
353;SDS011;165;53.592;10.044;2023-03-23T22:52:50;14.73;;;10.20;;
353;SDS011;165;53.592;10.044;2023-03-23T22:55:16;12.30;;;9.43;;
353;SDS011;165;53.592;10.044;2023-03-23T22:57:41;12.83;;;9.77;;
353;SDS011;165;53.592;10.044;2023-03-23T23:00:07;14.67;;;9.83;;
353;SDS011;165;53.592;10.044;2023-03-23T23:02:34;12.27;;;9.90;;
353;SDS011;165;53.592;10.044;2023-03-23T23:04:59;15.80;;;10.50;;
353;SDS011;165;53.592;10.044;2023-03-23T23:07:25;11.73;;;9.60;;
353;SDS011;165;53.592;10.044;2023-03-23T23:09:50;13.40;;;9.73;;
353;SDS011;165;53.592;10.044;2023-03-23T23:12:16;11.60;;;9.20;;
353;SDS011;165;53.592;10.044;2023-03-23T23:14:41;13.03;;;7.97;;
353;SDS011;165;53.592;10.044;2023-03-23T23:17:07;15.20;;;9.30;;
353;SDS011;165;53.592;10.044;2023-03-23T23:19:34;14.80;;;9.70;;
353;SDS011;165;53.592;10.044;2023-03-23T23:22:00;13.20;;;8.23;;
353;SDS011;165;53.592;10.044;2023-03-23T23:24:25;9.40;;;7.93;;
353;SDS011;165;53.592;10.044;2023-03-23T23:26:51;11.90;;;8.20;;
353;SDS011;165;53.592;10.044;2023-03-23T23:29:17;12.77;;;8.33;;
353;SDS011;165;53.592;10.044;2023-03-23T23:31:42;14.13;;;8.13;;